x

South Kodiak - 310nm Ssw Of Kodiak, Ak (46066) Wave Buoy

10:50pm - Tue 1st Sep 2015 All times are UTC.

  • Sig Wave height 4.6ft
  • Swell Direction
  • Peak Period 8s
  • Average Period 7s
  • Wind
    7mph, 9mph gusts
  • Sea Temp 55°f
  • Air Temp 55°f
  • Sea Pressure 1022.1mb

More Historic Weather Station data

Upgrade to MSW Pro to gain access to the past 30 days of data for over 8000 Wavebouys and Weather Stations around the globe.

Join Pro

Comparision Forecast

View Surf forecast
   
Tue 09/01 10:50pm 4.5ft 8s 7s 7 9 mph 1022.1mb 55f 55f
9:50pm 4.5ft 7s 7s 7
mph
1022mb 55f 55f
8:50pm 5ft 7s 6s 4 7 mph 1022mb 55f 55f
7:50pm 5ft 7s 6s 7 9 mph 1022.1mb 54f 54f
6:50pm 5ft 7s 7s 9
mph
1021.8mb 54f 54f
5:50pm 5ft 7s 6s 7 9 mph 1021.7mb 54f 54f
4:50pm 5ft 8s 7s 9 11 mph 1021.4mb 54f 54f
3:50pm 5ft 7s 6s 7 9 mph 1021mb 54f 54f
2:50pm 5ft 8s 6s 4 7 mph 1021mb 54f 54f
1:50pm 5.5ft 8s 6s 7
mph
1021mb 54f 54f
12:50pm 5.5ft 8s 6s 7 9 mph 1021.1mb 54f 54f
11:50am 5ft 8s 6s 7 9 mph 1020.9mb 54f 54f
10:50am 5ft 7s 6s 4 7 mph 1020.7mb 54f 54f
9:50am 5.5ft 7s 6s 7
mph
1020.5mb 54f 54f
8:50am 5.5ft 8s 6s 7 9 mph 1020.4mb 54f 54f
7:50am 6ft 7s 6s 9 11 mph 1020.2mb 54f 54f
6:50am 6ft 7s 6s 13 16 mph 1020mb 54f 54f
5:50am 6ft 7s 6s 13 16 mph 1019mb 54f 54f
4:50am 6ft 7s 6s 16 18 mph 1018.3mb 54f 54f
3:50am 6ft 7s 6s 18 20 mph 1018.3mb 54f 54f
2:50am 6.5ft 8s 6s 16 20 mph 1018.2mb 54f 54f
1:50am 6ft 7s 6s 16 20 mph 1017.7mb 54f 54f
12:50am 6ft 7s 6s 18 20 mph 1017.8mb 54f 54f
Mon 08/31 11:50pm 7ft 8s 6s 18 22 mph 1017.5mb 54f 54f
10:50pm 7ft 8s 6s 20 22 mph 1017.5mb 54f 54f
9:50pm 7ft 8s 6s 18 22 mph 1017.4mb 54f 54f
8:50pm 7ft 8s 6s 20 22 mph 1017.6mb 54f 54f
7:50pm 7.5ft 8s 6s 18 20 mph 1017.3mb 54f 54f
6:50pm 6.5ft 8s 6s 18 22 mph 1016.9mb 54f 54f
5:50pm 7ft 8s 6s 18 22 mph 1016.4mb 54f 54f
4:50pm 6ft 8s 6s 18 20 mph 1016.4mb 54f 54f
3:50pm 6.5ft 8s 6s 16 18 mph 1016.2mb 54f 54f
2:50pm 7ft 8s 6s 18 22 mph 1015.6mb 54f 54f
1:50pm 7.5ft 8s 6s 18 22 mph 1015.4mb 54f 54f
12:50pm 7.5ft 8s 6s 18 22 mph 1014.9mb 54f 54f
11:50am 7ft 8s 6s 18 22 mph 1014.7mb 54f 54f
10:50am 7ft 8s 6s 20 25 mph 1014.1mb 54f 54f
9:50am 7.5ft 8s 6s 18 22 mph 1013.7mb 54f 54f
8:50am 8ft 8s 6s 16 20 mph 1013.2mb 54f 54f
7:50am 8ft 7s 6s 16 20 mph 1012.8mb 54f 54f
6:50am 7ft 9s 6s 20 25 mph 1012.3mb 54f 54f
5:50am 8ft 9s 6s 20 22 mph 1011.9mb 54f 54f
4:50am 7.5ft 9s 6s 20 25 mph 1011.2mb 54f 54f
3:50am 7.5ft 9s 6s 20 22 mph 1011.1mb 54f 54f
2:50am 8ft 9s 6s 18 22 mph 1010.5mb 54f 54f
12:50am 7.5ft 8s 6s 18 20 mph 1010.3mb 54f 55f
Sun 08/30 11:50pm 8ft 9s 7s 16 20 mph 1009.9mb 54f 55f
10:50pm 8ft 9s 7s 13 18 mph 1009.9mb 54f 55f
9:50pm 8ft 9s 7s 11 16 mph 1009.7mb 54f 55f
8:50pm 9.5ft 9s 7s 9 13 mph 1009.3mb 54f 55f
7:50pm 9ft 9s 7s 9 11 mph 1008.8mb 54f 55f
6:50pm 9ft 9s 7s 9 13 mph 1008.6mb 54f 55f
5:50pm 11ft 10s 8s 11 16 mph 1008.1mb 54f 55f
4:50pm 9.5ft 10s 8s 11 13 mph 1007.7mb 54f 55f
3:50pm  -   -   -  11 13 mph 1006.9mb 54f 55f
2:50pm 10ft 10s 7s 11 16 mph 1006.3mb 54f 54f
1:50pm 10ft 10s 7s 13 16 mph 1005.6mb 54f 54f
12:50pm 10ft 8s 7s 13 16 mph 1005mb 54f 54f
11:50am 11ft 10s 7s 20 25 mph 1004.7mb 54f 55f
10:50am 12.5ft 10s 7s 25 29 mph 1004.5mb 54f 55f
9:50am 12.5ft 10s 7s 27 34 mph 1004.6mb 54f 55f
8:50am 14ft 10s 7s 27 34 mph 1004.8mb 54f 55f
7:50am 14.5ft 10s 8s 25 31 mph 1005.2mb 54f 56f
5:50am 16ft 10s 8s 27 34 mph 1005.4mb 54f 55f
3:50am 15.5ft 10s 8s 29 36 mph 1005.8mb 54f 56f
2:50am 13ft 9s 7s 31 38 mph 1005.7mb 54f 56f
1:50am 13.5ft 9s 7s 29 36 mph 1005.8mb 54f 56f
12:50am 13.5ft 9s 7s 31 36 mph 1005.9mb 54f 56f
Sat 08/29 11:50pm 13ft 9s 7s 34 43 mph 1006mb 55f 56f
10:50pm 13ft 9s 7s 34 43 mph 1006.1mb 55f 56f
9:50pm 12ft 8s 7s 34 38 mph 1006.5mb 55f 56f
8:50pm 11.5ft 8s 7s 31 40 mph 1006.9mb 55f 56f
7:50pm 12ft 8s 7s 29 38 mph 1007.6mb 55f 56f
6:50pm 12ft 8s 7s 31 38 mph 1008.2mb 55f 56f
5:50pm 11ft 8s 7s 34 43 mph 1008.2mb 55f 56f
4:50pm 11ft 15s 7s 29 38 mph 1009.3mb 55f 56f
3:50pm 9ft 7s 6s 27 34 mph 1009.7mb 55f 56f
2:50pm 9ft 15s 6s 27 31 mph 1010.6mb 55f 56f
1:50pm 8.5ft 15s 6s 25 29 mph 1011.8mb 55f 56f
12:50pm 8ft 7s 6s 22 31 mph 1012.4mb 55f 56f
11:50am 8.5ft 8s 6s 22 27 mph 1013.3mb 55f 56f
10:50am 9ft 8s 6s 20 27 mph 1014mb 55f 55f
9:50am 9ft 8s 7s 22 27 mph 1014.7mb 55f 55f
8:50am 9ft 8s 7s 18 22 mph 1015.3mb 55f 55f
7:50am 10ft 8s 7s 20 27 mph 1016.1mb 55f 55f
6:50am 9.5ft 15s 7s 18 25 mph 1016.5mb 55f 55f
5:50am 11ft 15s 7s 22 27 mph 1016.7mb 55f 55f
4:50am 11ft 16s 7s 22 27 mph 1017.4mb 55f 55f
3:50am 11ft 16s 7s 20 25 mph 1017.6mb 55f 55f
2:50am 10ft 16s 7s 22 29 mph 1017.9mb 55f 55f
1:50am 10.5ft 9s 7s 22 27 mph 1018mb 55f 55f
12:50am 10ft 8s 7s 20 25 mph 1018.6mb 55f 56f
Fri 08/28 11:50pm 10.5ft 9s 7s 22 27 mph 1018.9mb 55f 55f